This is the latest recevied weather packets stored in our database for station/object PU2ONU-13. If no packets are shown the sender has not sent any weather packets the latest 10 day(s).
| Time | Temp. | Humidity | Pressure | Rain* | Wind** | Luminosity | Snow |
|---|---|---|---|---|---|---|---|
| 1787935213 | 29.44° C | 38% | 1009 hPa | - | - | - | - |
| 1787934014 | 28.89° C | 38% | 1009 hPa | - | - | - | - |
| 1787930414 | 28.33° C | 43% | 1011 hPa | - | - | - | - |
| 1787928014 | 27.78° C | 46% | 1012 hPa | - | - | - | - |
| 1787926814 | 27.22° C | 46% | 1012 hPa | - | - | - | - |
| 1787924416 | 26.67° C | 47% | 1013 hPa | - | - | - | - |
| 1787923213 | 26.11° C | 49% | 1013 hPa | - | - | - | - |
| 1787920813 | 26.11° C | 48% | 1014 hPa | - | - | - | - |
| 1787919613 | 26.11° C | 50% | 1014 hPa | - | - | - | - |
| 1787917213 | 27.22° C | 46% | 1015 hPa | - | - | - | - |
| 1787916015 | 27.22° C | 44% | 1014 hPa | - | - | - | - |
| 1787913613 | 25° C | 46% | 1015 hPa | - | - | - | - |
| 1787912413 | 24.44° C | 46% | 1014 hPa | - | - | - | - |
| 1787910013 | 24.44° C | 45% | 1015 hPa | - | - | - | - |
| 1787908814 | 24.44° C | 47% | 1014 hPa | - | - | - | - |
| 1787906413 | 25° C | 45% | 1014 hPa | - | - | - | - |
| 1787905214 | 25° C | 44% | 1013 hPa | - | - | - | - |
| 1787902813 | 25.56° C | 45% | 1014 hPa | - | - | - | - |
| 1787901614 | 25° C | 45% | 1013 hPa | - | - | - | - |
| 1787899213 | 25.56° C | 45% | 1014 hPa | - | - | - | - |
| 1787898013 | 26.11° C | 44% | 1014 hPa | - | - | - | - |
| 1787895614 | 26.67° C | 43% | 1014 hPa | - | - | - | - |
| 1787894414 | 26.67° C | 43% | 1014 hPa | - | - | - | - |
| 1787892014 | 26.67° C | 44% | 1014 hPa | - | - | - | - |
| 1787890814 | 26.67° C | 44% | 1014 hPa | - | - | - | - |
* Rain since midnight (hover to see other rain measurements)
** Current wind speed in m/s (hover to see current wind gust speed)